sensor_id;sensor_type;location;lat;lon;timestamp;P1;durP1;ratioP1;P2;durP2;ratioP2
72920;SDS011;61064;51.654;5.476;2022-08-05T00:01:39;10.03;;;4.40;;
72920;SDS011;61064;51.654;5.476;2022-08-05T00:04:04;10.47;;;4.33;;
72920;SDS011;61064;51.654;5.476;2022-08-05T00:06:30;12.17;;;4.73;;
72920;SDS011;61064;51.654;5.476;2022-08-05T00:08:55;11.60;;;4.40;;
72920;SDS011;61064;51.654;5.476;2022-08-05T00:11:20;12.43;;;3.90;;
72920;SDS011;61064;51.654;5.476;2022-08-05T00:13:46;13.88;;;4.40;;
72920;SDS011;61064;51.654;5.476;2022-08-05T00:16:12;11.37;;;5.50;;
72920;SDS011;61064;51.654;5.476;2022-08-05T00:18:40;12.85;;;5.00;;
72920;SDS011;61064;51.654;5.476;2022-08-05T00:21:11;11.27;;;4.60;;
72920;SDS011;61064;51.654;5.476;2022-08-05T00:23:37;9.48;;;4.38;;
72920;SDS011;61064;51.654;5.476;2022-08-05T00:26:03;9.38;;;4.53;;
72920;SDS011;61064;51.654;5.476;2022-08-05T00:28:29;12.02;;;4.95;;
72920;SDS011;61064;51.654;5.476;2022-08-05T00:30:54;10.57;;;4.73;;
72920;SDS011;61064;51.654;5.476;2022-08-05T00:33:20;11.53;;;4.50;;
72920;SDS011;61064;51.654;5.476;2022-08-05T00:35:45;14.67;;;5.27;;
72920;SDS011;61064;51.654;5.476;2022-08-05T00:38:10;13.20;;;5.10;;
72920;SDS011;61064;51.654;5.476;2022-08-05T00:40:44;14.23;;;4.63;;
72920;SDS011;61064;51.654;5.476;2022-08-05T00:43:11;11.93;;;5.00;;
72920;SDS011;61064;51.654;5.476;2022-08-05T00:45:36;12.13;;;4.88;;
72920;SDS011;61064;51.654;5.476;2022-08-05T00:48:02;10.90;;;4.87;;
72920;SDS011;61064;51.654;5.476;2022-08-05T00:50:27;11.10;;;4.90;;
72920;SDS011;61064;51.654;5.476;2022-08-05T00:52:53;12.10;;;4.80;;
72920;SDS011;61064;51.654;5.476;2022-08-05T00:55:22;11.27;;;5.10;;
72920;SDS011;61064;51.654;5.476;2022-08-05T00:57:48;11.55;;;4.40;;
72920;SDS011;61064;51.654;5.476;2022-08-05T01:00:13;11.18;;;4.93;;
72920;SDS011;61064;51.654;5.476;2022-08-05T01:02:39;11.80;;;4.33;;
72920;SDS011;61064;51.654;5.476;2022-08-05T01:05:04;15.17;;;4.00;;
72920;SDS011;61064;51.654;5.476;2022-08-05T01:07:30;9.80;;;4.03;;
72920;SDS011;61064;51.654;5.476;2022-08-05T01:09:58;11.43;;;4.18;;
72920;SDS011;61064;51.654;5.476;2022-08-05T01:12:24;11.00;;;4.30;;
72920;SDS011;61064;51.654;5.476;2022-08-05T01:14:58;10.20;;;4.40;;
72920;SDS011;61064;51.654;5.476;2022-08-05T01:17:35;11.90;;;4.70;;
72920;SDS011;61064;51.654;5.476;2022-08-05T01:20:15;11.20;;;4.55;;
72920;SDS011;61064;51.654;5.476;2022-08-05T01:22:53;11.27;;;4.57;;
72920;SDS011;61064;51.654;5.476;2022-08-05T01:28:22;13.43;;;4.03;;
72920;SDS011;61064;51.654;5.476;2022-08-05T01:33:47;15.27;;;4.35;;
72920;SDS011;61064;51.654;5.476;2022-08-05T01:36:18;11.82;;;4.28;;
72920;SDS011;61064;51.654;5.476;2022-08-05T01:38:47;12.93;;;4.70;;
72920;SDS011;61064;51.654;5.476;2022-08-05T01:41:15;12.00;;;4.93;;
72920;SDS011;61064;51.654;5.476;2022-08-05T01:43:43;11.38;;;4.43;;
72920;SDS011;61064;51.654;5.476;2022-08-05T01:46:10;8.32;;;3.90;;
72920;SDS011;61064;51.654;5.476;2022-08-05T01:48:36;11.93;;;4.57;;
72920;SDS011;61064;51.654;5.476;2022-08-05T01:51:05;10.18;;;4.18;;
72920;SDS011;61064;51.654;5.476;2022-08-05T01:53:32;13.77;;;4.50;;
72920;SDS011;61064;51.654;5.476;2022-08-05T01:55:59;11.48;;;4.15;;
72920;SDS011;61064;51.654;5.476;2022-08-05T01:58:26;13.48;;;4.45;;
72920;SDS011;61064;51.654;5.476;2022-08-05T02:00:54;11.40;;;4.00;;
72920;SDS011;61064;51.654;5.476;2022-08-05T02:03:28;13.48;;;4.43;;
72920;SDS011;61064;51.654;5.476;2022-08-05T02:05:58;11.70;;;4.30;;
72920;SDS011;61064;51.654;5.476;2022-08-05T02:08:25;12.18;;;4.40;;
72920;SDS011;61064;51.654;5.476;2022-08-05T02:10:51;14.03;;;4.10;;
72920;SDS011;61064;51.654;5.476;2022-08-05T02:13:27;14.50;;;4.47;;
72920;SDS011;61064;51.654;5.476;2022-08-05T02:16:07;11.45;;;3.70;;
72920;SDS011;61064;51.654;5.476;2022-08-05T02:18:51;12.15;;;3.30;;
72920;SDS011;61064;51.654;5.476;2022-08-05T02:21:30;11.33;;;3.70;;
72920;SDS011;61064;51.654;5.476;2022-08-05T02:24:05;11.23;;;3.95;;
72920;SDS011;61064;51.654;5.476;2022-08-05T02:26:45;12.82;;;4.15;;
72920;SDS011;61064;51.654;5.476;2022-08-05T02:29:15;9.45;;;4.00;;
72920;SDS011;61064;51.654;5.476;2022-08-05T02:31:45;11.13;;;3.70;;
72920;SDS011;61064;51.654;5.476;2022-08-05T02:34:12;11.97;;;3.93;;
72920;SDS011;61064;51.654;5.476;2022-08-05T02:36:43;13.90;;;3.90;;
72920;SDS011;61064;51.654;5.476;2022-08-05T02:39:13;10.07;;;3.88;;
72920;SDS011;61064;51.654;5.476;2022-08-05T02:41:41;13.50;;;3.97;;
72920;SDS011;61064;51.654;5.476;2022-08-05T02:44:08;11.77;;;3.65;;
72920;SDS011;61064;51.654;5.476;2022-08-05T02:46:35;13.37;;;4.03;;
72920;SDS011;61064;51.654;5.476;2022-08-05T02:49:04;14.70;;;4.15;;
72920;SDS011;61064;51.654;5.476;2022-08-05T02:51:31;11.63;;;3.83;;
72920;SDS011;61064;51.654;5.476;2022-08-05T02:53:58;13.57;;;4.15;;
72920;SDS011;61064;51.654;5.476;2022-08-05T02:56:25;14.40;;;4.22;;
72920;SDS011;61064;51.654;5.476;2022-08-05T02:58:52;10.30;;;3.80;;
72920;SDS011;61064;51.654;5.476;2022-08-05T03:01:19;10.95;;;3.75;;
72920;SDS011;61064;51.654;5.476;2022-08-05T03:03:51;11.55;;;4.18;;
72920;SDS011;61064;51.654;5.476;2022-08-05T03:06:21;14.25;;;3.60;;
72920;SDS011;61064;51.654;5.476;2022-08-05T03:08:47;11.18;;;3.83;;
72920;SDS011;61064;51.654;5.476;2022-08-05T03:11:21;9.43;;;3.80;;
72920;SDS011;61064;51.654;5.476;2022-08-05T03:13:49;12.77;;;3.78;;
72920;SDS011;61064;51.654;5.476;2022-08-05T03:16:16;10.45;;;4.45;;
72920;SDS011;61064;51.654;5.476;2022-08-05T03:18:41;9.00;;;4.03;;
72920;SDS011;61064;51.654;5.476;2022-08-05T03:21:07;13.50;;;4.00;;
72920;SDS011;61064;51.654;5.476;2022-08-05T03:23:33;14.20;;;4.20;;
72920;SDS011;61064;51.654;5.476;2022-08-05T03:25:59;14.25;;;4.25;;
72920;SDS011;61064;51.654;5.476;2022-08-05T03:28:26;9.93;;;4.10;;
72920;SDS011;61064;51.654;5.476;2022-08-05T03:30:52;10.30;;;3.80;;
72920;SDS011;61064;51.654;5.476;2022-08-05T03:33:18;12.70;;;4.20;;
72920;SDS011;61064;51.654;5.476;2022-08-05T03:35:45;11.48;;;4.47;;
72920;SDS011;61064;51.654;5.476;2022-08-05T03:38:11;10.52;;;4.22;;
72920;SDS011;61064;51.654;5.476;2022-08-05T03:40:43;12.52;;;4.18;;
72920;SDS011;61064;51.654;5.476;2022-08-05T03:43:10;10.95;;;4.50;;
72920;SDS011;61064;51.654;5.476;2022-08-05T03:45:36;11.00;;;4.20;;
72920;SDS011;61064;51.654;5.476;2022-08-05T03:48:02;9.00;;;4.05;;
72920;SDS011;61064;51.654;5.476;2022-08-05T03:50:31;11.53;;;4.20;;
72920;SDS011;61064;51.654;5.476;2022-08-05T03:53:12;14.73;;;4.05;;
72920;SDS011;61064;51.654;5.476;2022-08-05T03:55:51;11.88;;;3.63;;
72920;SDS011;61064;51.654;5.476;2022-08-05T03:58:21;10.93;;;3.90;;
72920;SDS011;61064;51.654;5.476;2022-08-05T04:00:51;10.52;;;4.18;;
72920;SDS011;61064;51.654;5.476;2022-08-05T04:03:19;10.97;;;3.73;;
72920;SDS011;61064;51.654;5.476;2022-08-05T04:05:46;10.02;;;3.97;;
72920;SDS011;61064;51.654;5.476;2022-08-05T04:08:15;11.73;;;4.07;;
72920;SDS011;61064;51.654;5.476;2022-08-05T04:10:42;12.40;;;4.30;;
72920;SDS011;61064;51.654;5.476;2022-08-05T04:13:09;11.68;;;3.92;;
72920;SDS011;61064;51.654;5.476;2022-08-05T04:15:34;10.37;;;4.13;;
72920;SDS011;61064;51.654;5.476;2022-08-05T04:18:01;11.95;;;4.30;;
72920;SDS011;61064;51.654;5.476;2022-08-05T04:20:30;11.50;;;4.22;;
72920;SDS011;61064;51.654;5.476;2022-08-05T04:22:55;12.47;;;4.30;;
72920;SDS011;61064;51.654;5.476;2022-08-05T04:25:21;13.97;;;4.60;;
72920;SDS011;61064;51.654;5.476;2022-08-05T04:27:46;12.68;;;4.70;;
72920;SDS011;61064;51.654;5.476;2022-08-05T04:30:11;12.20;;;4.83;;
72920;SDS011;61064;51.654;5.476;2022-08-05T04:32:38;11.95;;;4.07;;
72920;SDS011;61064;51.654;5.476;2022-08-05T04:35:03;12.47;;;4.63;;
72920;SDS011;61064;51.654;5.476;2022-08-05T04:37:29;10.73;;;4.18;;
72920;SDS011;61064;51.654;5.476;2022-08-05T04:39:56;12.35;;;4.68;;
72920;SDS011;61064;51.654;5.476;2022-08-05T04:42:22;12.20;;;4.60;;
72920;SDS011;61064;51.654;5.476;2022-08-05T04:44:47;12.67;;;4.80;;
72920;SDS011;61064;51.654;5.476;2022-08-05T04:47:12;15.10;;;4.60;;
72920;SDS011;61064;51.654;5.476;2022-08-05T04:49:38;12.23;;;4.63;;
72920;SDS011;61064;51.654;5.476;2022-08-05T04:52:04;11.60;;;4.70;;
72920;SDS011;61064;51.654;5.476;2022-08-05T04:54:30;14.80;;;4.60;;
72920;SDS011;61064;51.654;5.476;2022-08-05T04:56:55;10.97;;;4.50;;
72920;SDS011;61064;51.654;5.476;2022-08-05T04:59:20;10.87;;;4.07;;
72920;SDS011;61064;51.654;5.476;2022-08-05T05:01:49;10.80;;;4.45;;
72920;SDS011;61064;51.654;5.476;2022-08-05T05:04:15;11.63;;;4.23;;
72920;SDS011;61064;51.654;5.476;2022-08-05T05:06:41;9.65;;;4.00;;
72920;SDS011;61064;51.654;5.476;2022-08-05T05:09:06;9.93;;;4.13;;
72920;SDS011;61064;51.654;5.476;2022-08-05T05:11:32;11.30;;;3.87;;
72920;SDS011;61064;51.654;5.476;2022-08-05T05:13:57;13.00;;;3.97;;
72920;SDS011;61064;51.654;5.476;2022-08-05T05:16:22;11.33;;;3.90;;
72920;SDS011;61064;51.654;5.476;2022-08-05T05:18:48;14.57;;;4.27;;
72920;SDS011;61064;51.654;5.476;2022-08-05T05:21:13;16.63;;;6.67;;
72920;SDS011;61064;51.654;5.476;2022-08-05T05:23:40;10.55;;;4.70;;
72920;SDS011;61064;51.654;5.476;2022-08-05T05:26:05;12.27;;;4.37;;
72920;SDS011;61064;51.654;5.476;2022-08-05T05:28:30;11.77;;;4.23;;
72920;SDS011;61064;51.654;5.476;2022-08-05T05:30:56;12.50;;;4.23;;
72920;SDS011;61064;51.654;5.476;2022-08-05T05:33:22;9.98;;;3.72;;
72920;SDS011;61064;51.654;5.476;2022-08-05T05:35:47;10.50;;;4.00;;
72920;SDS011;61064;51.654;5.476;2022-08-05T05:38:13;12.73;;;3.80;;
72920;SDS011;61064;51.654;5.476;2022-08-05T05:40:39;9.93;;;3.60;;
72920;SDS011;61064;51.654;5.476;2022-08-05T05:43:05;12.20;;;5.35;;
72920;SDS011;61064;51.654;5.476;2022-08-05T05:45:30;9.33;;;4.00;;
72920;SDS011;61064;51.654;5.476;2022-08-05T05:47:59;10.57;;;3.87;;
72920;SDS011;61064;51.654;5.476;2022-08-05T05:50:25;12.25;;;3.90;;
72920;SDS011;61064;51.654;5.476;2022-08-05T05:52:51;10.53;;;3.47;;
72920;SDS011;61064;51.654;5.476;2022-08-05T05:55:16;10.13;;;3.20;;
72920;SDS011;61064;51.654;5.476;2022-08-05T05:57:42;12.83;;;3.63;;
72920;SDS011;61064;51.654;5.476;2022-08-05T06:00:09;12.50;;;3.90;;
72920;SDS011;61064;51.654;5.476;2022-08-05T06:02:36;10.70;;;3.90;;
72920;SDS011;61064;51.654;5.476;2022-08-05T06:05:02;12.70;;;3.70;;
72920;SDS011;61064;51.654;5.476;2022-08-05T06:07:27;11.97;;;3.83;;
72920;SDS011;61064;51.654;5.476;2022-08-05T06:09:53;9.23;;;3.60;;
72920;SDS011;61064;51.654;5.476;2022-08-05T06:12:18;11.70;;;3.70;;
72920;SDS011;61064;51.654;5.476;2022-08-05T06:14:43;14.03;;;3.57;;
72920;SDS011;61064;51.654;5.476;2022-08-05T06:17:09;8.87;;;3.33;;
72920;SDS011;61064;51.654;5.476;2022-08-05T06:19:36;11.57;;;3.90;;
72920;SDS011;61064;51.654;5.476;2022-08-05T06:22:02;11.13;;;4.00;;
72920;SDS011;61064;51.654;5.476;2022-08-05T06:24:28;11.82;;;3.80;;
72920;SDS011;61064;51.654;5.476;2022-08-05T06:26:53;8.70;;;3.47;;
72920;SDS011;61064;51.654;5.476;2022-08-05T06:29:19;12.20;;;3.70;;
72920;SDS011;61064;51.654;5.476;2022-08-05T06:31:45;9.60;;;3.78;;
72920;SDS011;61064;51.654;5.476;2022-08-05T06:34:10;13.23;;;3.43;;
72920;SDS011;61064;51.654;5.476;2022-08-05T06:36:35;10.97;;;3.90;;
72920;SDS011;61064;51.654;5.476;2022-08-05T06:39:01;9.43;;;3.60;;
72920;SDS011;61064;51.654;5.476;2022-08-05T06:41:26;8.47;;;3.60;;
72920;SDS011;61064;51.654;5.476;2022-08-05T06:43:52;8.77;;;3.90;;
72920;SDS011;61064;51.654;5.476;2022-08-05T06:46:17;13.87;;;4.40;;
72920;SDS011;61064;51.654;5.476;2022-08-05T06:48:42;12.23;;;3.85;;
72920;SDS011;61064;51.654;5.476;2022-08-05T06:51:10;12.23;;;3.67;;
72920;SDS011;61064;51.654;5.476;2022-08-05T06:53:36;12.85;;;3.90;;
72920;SDS011;61064;51.654;5.476;2022-08-05T06:56:02;9.47;;;3.77;;
72920;SDS011;61064;51.654;5.476;2022-08-05T06:58:27;10.75;;;4.05;;
72920;SDS011;61064;51.654;5.476;2022-08-05T07:00:54;13.85;;;3.88;;
72920;SDS011;61064;51.654;5.476;2022-08-05T07:03:22;11.03;;;3.57;;
72920;SDS011;61064;51.654;5.476;2022-08-05T07:05:47;10.38;;;3.42;;
72920;SDS011;61064;51.654;5.476;2022-08-05T07:08:12;12.33;;;4.03;;
72920;SDS011;61064;51.654;5.476;2022-08-05T07:10:38;10.83;;;3.37;;
72920;SDS011;61064;51.654;5.476;2022-08-05T07:13:04;12.15;;;3.00;;
72920;SDS011;61064;51.654;5.476;2022-08-05T07:15:48;10.20;;;3.30;;
72920;SDS011;61064;51.654;5.476;2022-08-05T07:18:32;13.93;;;5.90;;
72920;SDS011;61064;51.654;5.476;2022-08-05T07:20:57;9.87;;;3.57;;
72920;SDS011;61064;51.654;5.476;2022-08-05T07:23:22;11.27;;;3.28;;
72920;SDS011;61064;51.654;5.476;2022-08-05T07:25:48;8.23;;;2.83;;
72920;SDS011;61064;51.654;5.476;2022-08-05T07:28:13;9.83;;;3.23;;
72920;SDS011;61064;51.654;5.476;2022-08-05T07:30:39;10.67;;;2.70;;
72920;SDS011;61064;51.654;5.476;2022-08-05T07:33:06;10.80;;;2.25;;
72920;SDS011;61064;51.654;5.476;2022-08-05T07:35:33;10.30;;;2.50;;
72920;SDS011;61064;51.654;5.476;2022-08-05T07:37:58;9.10;;;2.23;;
72920;SDS011;61064;51.654;5.476;2022-08-05T07:40:24;12.60;;;2.40;;
72920;SDS011;61064;51.654;5.476;2022-08-05T07:42:49;9.10;;;2.00;;
72920;SDS011;61064;51.654;5.476;2022-08-05T07:45:14;8.07;;;2.13;;
72920;SDS011;61064;51.654;5.476;2022-08-05T07:47:40;9.45;;;2.38;;
72920;SDS011;61064;51.654;5.476;2022-08-05T07:50:06;8.03;;;1.93;;
72920;SDS011;61064;51.654;5.476;2022-08-05T07:52:36;9.27;;;2.10;;
72920;SDS011;61064;51.654;5.476;2022-08-05T07:55:08;5.82;;;1.98;;
72920;SDS011;61064;51.654;5.476;2022-08-05T07:57:34;8.45;;;2.08;;
72920;SDS011;61064;51.654;5.476;2022-08-05T08:00:00;7.43;;;2.00;;
72920;SDS011;61064;51.654;5.476;2022-08-05T08:02:27;6.63;;;1.67;;
72920;SDS011;61064;51.654;5.476;2022-08-05T08:04:53;9.35;;;1.88;;
72920;SDS011;61064;51.654;5.476;2022-08-05T08:07:19;5.65;;;1.80;;
72920;SDS011;61064;51.654;5.476;2022-08-05T08:09:45;8.30;;;1.75;;
72920;SDS011;61064;51.654;5.476;2022-08-05T08:12:11;7.77;;;2.13;;
72920;SDS011;61064;51.654;5.476;2022-08-05T08:14:40;7.80;;;1.75;;
72920;SDS011;61064;51.654;5.476;2022-08-05T08:17:06;8.00;;;2.10;;
72920;SDS011;61064;51.654;5.476;2022-08-05T08:19:35;6.80;;;1.50;;
72920;SDS011;61064;51.654;5.476;2022-08-05T08:22:04;6.47;;;1.80;;
72920;SDS011;61064;51.654;5.476;2022-08-05T08:24:30;7.27;;;1.60;;
72920;SDS011;61064;51.654;5.476;2022-08-05T08:26:56;5.70;;;1.65;;
72920;SDS011;61064;51.654;5.476;2022-08-05T08:29:21;7.90;;;1.70;;
72920;SDS011;61064;51.654;5.476;2022-08-05T08:31:47;6.40;;;1.90;;
72920;SDS011;61064;51.654;5.476;2022-08-05T08:34:13;8.27;;;2.05;;
72920;SDS011;61064;51.654;5.476;2022-08-05T08:36:38;6.90;;;1.60;;
72920;SDS011;61064;51.654;5.476;2022-08-05T08:39:04;6.03;;;1.50;;
72920;SDS011;61064;51.654;5.476;2022-08-05T08:41:31;8.02;;;1.80;;
72920;SDS011;61064;51.654;5.476;2022-08-05T08:43:58;6.85;;;1.70;;
72920;SDS011;61064;51.654;5.476;2022-08-05T08:46:30;6.07;;;1.80;;
72920;SDS011;61064;51.654;5.476;2022-08-05T08:48:56;6.03;;;1.70;;
72920;SDS011;61064;51.654;5.476;2022-08-05T08:51:22;8.82;;;2.20;;
72920;SDS011;61064;51.654;5.476;2022-08-05T08:53:49;7.55;;;1.95;;
72920;SDS011;61064;51.654;5.476;2022-08-05T08:56:15;7.97;;;1.73;;
72920;SDS011;61064;51.654;5.476;2022-08-05T08:58:41;6.88;;;2.00;;
72920;SDS011;61064;51.654;5.476;2022-08-05T09:01:07;7.00;;;1.90;;
72920;SDS011;61064;51.654;5.476;2022-08-05T09:03:33;5.57;;;1.70;;
72920;SDS011;61064;51.654;5.476;2022-08-05T09:05:59;7.25;;;1.70;;
72920;SDS011;61064;51.654;5.476;2022-08-05T09:08:25;6.47;;;1.53;;
72920;SDS011;61064;51.654;5.476;2022-08-05T09:10:50;7.50;;;1.90;;
72920;SDS011;61064;51.654;5.476;2022-08-05T09:13:15;7.15;;;1.83;;
72920;SDS011;61064;51.654;5.476;2022-08-05T09:15:43;6.80;;;1.40;;
72920;SDS011;61064;51.654;5.476;2022-08-05T09:18:08;7.20;;;1.40;;
72920;SDS011;61064;51.654;5.476;2022-08-05T09:20:37;6.77;;;1.30;;
72920;SDS011;61064;51.654;5.476;2022-08-05T09:23:06;7.10;;;1.58;;
72920;SDS011;61064;51.654;5.476;2022-08-05T09:25:38;7.38;;;1.50;;
72920;SDS011;61064;51.654;5.476;2022-08-05T09:28:12;5.57;;;1.30;;
72920;SDS011;61064;51.654;5.476;2022-08-05T09:30:55;6.45;;;1.30;;
72920;SDS011;61064;51.654;5.476;2022-08-05T09:33:29;5.43;;;1.30;;
72920;SDS011;61064;51.654;5.476;2022-08-05T09:35:56;5.97;;;1.40;;
72920;SDS011;61064;51.654;5.476;2022-08-05T09:38:26;5.15;;;1.70;;
72920;SDS011;61064;51.654;5.476;2022-08-05T09:40:52;8.00;;;1.40;;
72920;SDS011;61064;51.654;5.476;2022-08-05T09:43:31;9.43;;;1.60;;
72920;SDS011;61064;51.654;5.476;2022-08-05T09:45:57;5.87;;;1.30;;
72920;SDS011;61064;51.654;5.476;2022-08-05T09:48:27;6.63;;;1.17;;
72920;SDS011;61064;51.654;5.476;2022-08-05T09:50:59;5.40;;;1.20;;
72920;SDS011;61064;51.654;5.476;2022-08-05T09:53:51;5.78;;;1.00;;
72920;SDS011;61064;51.654;5.476;2022-08-05T09:56:27;5.03;;;0.98;;
72920;SDS011;61064;51.654;5.476;2022-08-05T09:58:55;3.88;;;0.93;;
72920;SDS011;61064;51.654;5.476;2022-08-05T10:01:26;4.43;;;0.77;;
72920;SDS011;61064;51.654;5.476;2022-08-05T10:03:55;5.73;;;0.97;;
72920;SDS011;61064;51.654;5.476;2022-08-05T10:06:23;3.22;;;0.82;;
72920;SDS011;61064;51.654;5.476;2022-08-05T10:08:50;4.03;;;0.73;;
72920;SDS011;61064;51.654;5.476;2022-08-05T10:11:16;4.00;;;0.77;;
72920;SDS011;61064;51.654;5.476;2022-08-05T10:13:42;3.65;;;0.70;;
72920;SDS011;61064;51.654;5.476;2022-08-05T10:16:27;4.87;;;0.80;;
72920;SDS011;61064;51.654;5.476;2022-08-05T10:18:58;3.95;;;0.60;;
72920;SDS011;61064;51.654;5.476;2022-08-05T10:21:24;4.20;;;0.63;;
72920;SDS011;61064;51.654;5.476;2022-08-05T10:23:49;5.43;;;0.90;;
72920;SDS011;61064;51.654;5.476;2022-08-05T10:26:17;3.30;;;0.60;;
72920;SDS011;61064;51.654;5.476;2022-08-05T10:28:44;5.00;;;1.07;;
72920;SDS011;61064;51.654;5.476;2022-08-05T10:31:11;5.43;;;0.80;;
72920;SDS011;61064;51.654;5.476;2022-08-05T10:33:37;4.30;;;1.00;;
72920;SDS011;61064;51.654;5.476;2022-08-05T10:36:03;3.03;;;0.60;;
72920;SDS011;61064;51.654;5.476;2022-08-05T10:38:30;6.23;;;0.97;;
72920;SDS011;61064;51.654;5.476;2022-08-05T10:46:21;3.15;;;0.60;;
72920;SDS011;61064;51.654;5.476;2022-08-05T10:48:55;2.33;;;0.50;;
72920;SDS011;61064;51.654;5.476;2022-08-05T10:51:40;2.80;;;0.50;;
72920;SDS011;61064;51.654;5.476;2022-08-05T10:54:09;2.67;;;0.50;;
72920;SDS011;61064;51.654;5.476;2022-08-05T10:56:51;2.85;;;0.60;;
72920;SDS011;61064;51.654;5.476;2022-08-05T10:59:24;5.05;;;1.08;;
72920;SDS011;61064;51.654;5.476;2022-08-05T11:02:04;2.60;;;0.60;;
72920;SDS011;61064;51.654;5.476;2022-08-05T11:04:32;2.25;;;0.43;;
72920;SDS011;61064;51.654;5.476;2022-08-05T11:07:07;3.97;;;0.57;;
72920;SDS011;61064;51.654;5.476;2022-08-05T11:09:37;2.65;;;0.43;;
72920;SDS011;61064;51.654;5.476;2022-08-05T11:12:03;4.60;;;0.60;;
72920;SDS011;61064;51.654;5.476;2022-08-05T11:14:30;2.45;;;0.50;;
72920;SDS011;61064;51.654;5.476;2022-08-05T11:19:56;3.15;;;0.50;;
72920;SDS011;61064;51.654;5.476;2022-08-05T11:46:30;4.20;;;0.60;;
72920;SDS011;61064;51.654;5.476;2022-08-05T11:49:06;6.18;;;0.70;;
72920;SDS011;61064;51.654;5.476;2022-08-05T11:51:37;5.18;;;0.70;;
72920;SDS011;61064;51.654;5.476;2022-08-05T11:54:09;6.28;;;0.60;;
72920;SDS011;61064;51.654;5.476;2022-08-05T11:56:42;3.33;;;0.50;;
72920;SDS011;61064;51.654;5.476;2022-08-05T11:59:16;5.88;;;0.82;;
72920;SDS011;61064;51.654;5.476;2022-08-05T12:04:39;4.28;;;0.70;;
72920;SDS011;61064;51.654;5.476;2022-08-05T12:07:06;3.35;;;0.75;;
72920;SDS011;61064;51.654;5.476;2022-08-05T12:09:37;4.30;;;0.80;;
72920;SDS011;61064;51.654;5.476;2022-08-05T12:12:04;4.25;;;0.70;;
72920;SDS011;61064;51.654;5.476;2022-08-05T12:14:36;5.32;;;1.00;;
72920;SDS011;61064;51.654;5.476;2022-08-05T12:17:07;4.85;;;0.70;;
72920;SDS011;61064;51.654;5.476;2022-08-05T12:19:39;3.38;;;0.60;;
72920;SDS011;61064;51.654;5.476;2022-08-05T12:22:06;3.20;;;0.60;;
72920;SDS011;61064;51.654;5.476;2022-08-05T12:24:32;4.78;;;0.60;;
72920;SDS011;61064;51.654;5.476;2022-08-05T12:26:57;2.73;;;0.50;;
72920;SDS011;61064;51.654;5.476;2022-08-05T12:29:25;3.38;;;0.60;;
72920;SDS011;61064;51.654;5.476;2022-08-05T12:31:54;4.20;;;0.70;;
72920;SDS011;61064;51.654;5.476;2022-08-05T12:34:25;6.93;;;1.60;;
72920;SDS011;61064;51.654;5.476;2022-08-05T12:36:53;5.05;;;1.10;;
72920;SDS011;61064;51.654;5.476;2022-08-05T12:39:21;2.83;;;0.55;;
72920;SDS011;61064;51.654;5.476;2022-08-05T12:41:47;4.60;;;0.63;;
72920;SDS011;61064;51.654;5.476;2022-08-05T12:44:13;4.17;;;0.50;;
72920;SDS011;61064;51.654;5.476;2022-08-05T12:46:40;3.95;;;0.50;;
72920;SDS011;61064;51.654;5.476;2022-08-05T12:51:45;5.03;;;0.70;;
72920;SDS011;61064;51.654;5.476;2022-08-05T12:54:19;4.57;;;0.50;;
72920;SDS011;61064;51.654;5.476;2022-08-05T12:56:50;1.98;;;0.50;;
72920;SDS011;61064;51.654;5.476;2022-08-05T12:59:24;5.20;;;0.60;;
72920;SDS011;61064;51.654;5.476;2022-08-05T13:01:58;4.63;;;0.50;;
72920;SDS011;61064;51.654;5.476;2022-08-05T13:04:28;3.77;;;0.63;;
72920;SDS011;61064;51.654;5.476;2022-08-05T13:06:55;6.65;;;1.52;;
72920;SDS011;61064;51.654;5.476;2022-08-05T13:09:23;4.63;;;0.80;;
72920;SDS011;61064;51.654;5.476;2022-08-05T13:11:49;2.92;;;0.60;;
72920;SDS011;61064;51.654;5.476;2022-08-05T13:14:15;3.73;;;0.60;;
72920;SDS011;61064;51.654;5.476;2022-08-05T13:16:43;3.55;;;0.50;;
72920;SDS011;61064;51.654;5.476;2022-08-05T13:19:19;4.75;;;0.50;;
72920;SDS011;61064;51.654;5.476;2022-08-05T13:21:45;4.30;;;0.60;;
72920;SDS011;61064;51.654;5.476;2022-08-05T13:24:11;2.85;;;0.40;;
72920;SDS011;61064;51.654;5.476;2022-08-05T13:26:37;5.45;;;1.20;;
72920;SDS011;61064;51.654;5.476;2022-08-05T13:29:02;3.50;;;0.70;;
72920;SDS011;61064;51.654;5.476;2022-08-05T13:31:28;5.70;;;0.60;;
72920;SDS011;61064;51.654;5.476;2022-08-05T13:33:54;3.53;;;0.50;;
72920;SDS011;61064;51.654;5.476;2022-08-05T13:36:19;6.07;;;0.50;;
72920;SDS011;61064;51.654;5.476;2022-08-05T13:38:44;4.57;;;0.60;;
72920;SDS011;61064;51.654;5.476;2022-08-05T13:41:10;2.27;;;0.40;;
72920;SDS011;61064;51.654;5.476;2022-08-05T13:43:36;4.78;;;0.50;;
72920;SDS011;61064;51.654;5.476;2022-08-05T13:46:01;1.87;;;0.40;;
72920;SDS011;61064;51.654;5.476;2022-08-05T13:48:26;1.13;;;0.40;;
72920;SDS011;61064;51.654;5.476;2022-08-05T13:50:52;3.88;;;0.40;;
72920;SDS011;61064;51.654;5.476;2022-08-05T13:53:17;4.23;;;0.47;;
72920;SDS011;61064;51.654;5.476;2022-08-05T13:55:43;3.83;;;0.40;;
72920;SDS011;61064;51.654;5.476;2022-08-05T13:58:08;3.40;;;0.40;;
72920;SDS011;61064;51.654;5.476;2022-08-05T14:00:33;2.67;;;0.43;;
72920;SDS011;61064;51.654;5.476;2022-08-05T14:03:00;5.28;;;0.50;;
72920;SDS011;61064;51.654;5.476;2022-08-05T14:05:26;5.80;;;0.68;;
72920;SDS011;61064;51.654;5.476;2022-08-05T14:07:51;2.67;;;0.60;;
72920;SDS011;61064;51.654;5.476;2022-08-05T14:10:19;4.50;;;1.23;;
72920;SDS011;61064;51.654;5.476;2022-08-05T14:12:48;4.20;;;0.53;;
72920;SDS011;61064;51.654;5.476;2022-08-05T14:15:13;2.78;;;0.50;;
72920;SDS011;61064;51.654;5.476;2022-08-05T14:17:39;3.97;;;0.50;;
72920;SDS011;61064;51.654;5.476;2022-08-05T14:20:04;6.20;;;0.70;;
72920;SDS011;61064;51.654;5.476;2022-08-05T14:22:31;3.53;;;0.50;;
72920;SDS011;61064;51.654;5.476;2022-08-05T14:24:57;4.82;;;0.60;;
72920;SDS011;61064;51.654;5.476;2022-08-05T14:27:22;3.07;;;0.50;;
72920;SDS011;61064;51.654;5.476;2022-08-05T14:29:48;1.63;;;0.47;;
72920;SDS011;61064;51.654;5.476;2022-08-05T14:32:13;2.77;;;0.60;;
72920;SDS011;61064;51.654;5.476;2022-08-05T14:34:38;5.07;;;0.60;;
72920;SDS011;61064;51.654;5.476;2022-08-05T14:37:04;3.40;;;0.57;;
72920;SDS011;61064;51.654;5.476;2022-08-05T14:39:30;3.67;;;0.57;;
72920;SDS011;61064;51.654;5.476;2022-08-05T14:41:56;3.55;;;0.63;;
72920;SDS011;61064;51.654;5.476;2022-08-05T14:44:22;3.13;;;0.60;;
72920;SDS011;61064;51.654;5.476;2022-08-05T14:46:47;5.10;;;0.60;;
72920;SDS011;61064;51.654;5.476;2022-08-05T14:49:12;4.07;;;0.50;;
72920;SDS011;61064;51.654;5.476;2022-08-05T14:51:38;4.77;;;0.50;;
72920;SDS011;61064;51.654;5.476;2022-08-05T14:54:05;3.90;;;0.50;;
72920;SDS011;61064;51.654;5.476;2022-08-05T14:56:31;3.80;;;0.50;;
72920;SDS011;61064;51.654;5.476;2022-08-05T14:58:57;5.30;;;0.60;;
72920;SDS011;61064;51.654;5.476;2022-08-05T15:01:22;3.17;;;0.50;;
72920;SDS011;61064;51.654;5.476;2022-08-05T15:03:47;4.57;;;0.60;;
72920;SDS011;61064;51.654;5.476;2022-08-05T15:06:13;3.33;;;0.40;;
72920;SDS011;61064;51.654;5.476;2022-08-05T15:08:38;5.60;;;0.63;;
72920;SDS011;61064;51.654;5.476;2022-08-05T15:11:04;3.63;;;0.50;;
72920;SDS011;61064;51.654;5.476;2022-08-05T15:13:31;4.03;;;0.60;;
72920;SDS011;61064;51.654;5.476;2022-08-05T15:15:57;3.17;;;0.50;;
72920;SDS011;61064;51.654;5.476;2022-08-05T15:18:22;2.63;;;0.50;;
72920;SDS011;61064;51.654;5.476;2022-08-05T15:20:49;6.30;;;0.50;;
72920;SDS011;61064;51.654;5.476;2022-08-05T15:23:14;7.23;;;0.70;;
72920;SDS011;61064;51.654;5.476;2022-08-05T15:25:40;4.10;;;0.60;;
72920;SDS011;61064;51.654;5.476;2022-08-05T15:28:05;2.60;;;0.50;;